Etusivu
METAR-TAF:

METAR-TAF

Lentoasemat :

Cleveland, Mississippi, Yhdysvallat

Leveyspiiri: 33-45-40N, Pituuspiiri: 090-45-28W, korkeus merenpinnasta: 42 m

Tämänhetkinen sää

Tämä raportti tehtiin 29 minuuttia sitten, kello 10.35 UTC
Tuuli 3 kn etelästä/kaakosta
Lämpötila 24°C
Kosteus 100%
Ilmanpaine 1016 hPa
Näkyvyys: 16.1 km
Hajanaisia pilviä 12000 ft:n korkeudessa

METAR: KRNV 241035Z AUTO 15003KT 10SM SCT120 24/24 A3000 RMK AO2 T02360236

Aika: 06:04 (11:04 UTC)


TAF: puuttuu

Säähavainnot ja -ennusteet yli 4000 lentoasemalta (METAR- ja TAF-raportit).

Käytössä olevat sääasemat on merkitty karttaan keltaisilla ja punaisilla pisteillä.

Aseta hiiri pisteen päälle nähdäksesi sääaseman nimen.

Klikkaa sitten nähdäksesi säähavainnot ja -ennusteet.

Kartan vaihtaminen: klikkaa mustalla rastilla varustettuja vihreitä pisteitä, niin voit zoomata sisään; viivalla varustettua vihreää pistettä, niin voit zoomata ulos tai vihreitä nuolia, niin pääset viereisille kartoille.


METAR-TAF: